Airfield :
LOGIN :

Register | Disclaimer

   EN    FR    IT 

 










Legend :    VFR   Marginal VFR   IFR   Intensive IFR   Very Intensive IFR
Visi :
Ceiling :
>= 8 km
>= 3000ft
5 to 8 km
1000 to 3000 ft
1500m to 5 km
500 to 1000 ft
800 to 1500m
200 to 500 ft
< 800m
< 200 ft
Symbols :   Thunderstorms  Fog  Heavy snow  Heavy precipitations  Wind > 20 kt
SIGMETs :     Misc.  Thunderstorms  Icing  Turbulence  Mountain Waves  Volcanic Ashes






- Airport Elevation : 112 ft
- IATA code : SVQ


LEZL - Sevilla San Pablo

CURRENT METAR :
  • 200230Z AUTO 28005KT 260V320 CAVOK 16/11 Q1013

EXPIRED METARs :
  • 200200Z AUTO 31004KT CAVOK 16/11 Q1013
  • 200130Z AUTO 32004KT CAVOK 16/11 Q1013
  • 200100Z AUTO 35003KT 320V030 CAVOK 17/11 Q1014
  • 200030Z AUTO 33004KT 300V010 CAVOK 17/11 Q1014
  • 200000Z AUTO 04006KT CAVOK 17/10 Q1014
  • 192330Z AUTO 07006KT 030V100 CAVOK 18/10 Q1014
  • 192300Z 01004KT 350V060 CAVOK 18/10 Q1014 NOSIG
  • 192230Z 09007KT 050V140 CAVOK 19/10 Q1014 NOSIG
  • 192200Z VRB02KT CAVOK 19/09 Q1014 NOSIG

TAF TAF LEZL
Valid from the 20 at 03:00 until the 21 at 03:00 UTC


200200Z 2003/2103 06006KT CAVOK TX25/2015Z TN14/2007Z
PROB30
TEMPO 2003/2012 RA



MET'MAP, your aeronautical weather chart ! - Copyright ORBIFLY December 2007 - Disclaimer

ORBIFLY MET'MAP TEAM :

Programming & Development : Alexandra Zaïnal
Original concept : Baudouin d'Aumeries
Technical & hardware support : Manuel Goepfert
Assistance : Marc-Olivier Méhu




SOURCES & CREDITS :

   NOAA